Time;durP1;ratioP1;P1;durP2;ratioP2;P2;SDS_P1;SDS_P2;PMS_P1;PMS_P2;Temp;Humidity;BMP_temperature;BMP_pressure;BME280_temperature;BME280_humidity;BME280_pressure;Samples;Min_cycle;Max_cycle;Signal;HPM_P1;HPM_P2
2020/12/01 00:00:26;;;;;;;25.17;4.30;;;8.60;99.90;;;;;;5021399;28;38524;-75
2020/12/01 00:02:52;;;;;;;25.50;3.97;;;8.60;99.90;;;;;;5044734;28;37193;-75
2020/12/01 00:05:21;;;;;;;14.97;2.67;;;8.70;99.90;;;;;;5030729;28;38957;-77
2020/12/01 00:07:48;;;;;;;16.20;2.60;;;8.70;99.90;;;;;;5041713;28;37434;-74
2020/12/01 00:10:15;;;;;;;15.90;2.53;;;8.60;99.90;;;;;;5022461;28;37018;-74
2020/12/01 00:12:45;;;;;;;22.27;3.10;;;8.50;99.90;;;;;;5008166;28;35362;-77
2020/12/01 00:15:14;;;;;;;16.67;2.43;;;8.40;99.90;;;;;;5007686;28;36603;-76
2020/12/01 00:17:40;;;;;;;15.17;2.73;;;8.50;99.90;;;;;;5005243;28;38207;-76
2020/12/01 00:20:08;;;;;;;20.60;2.87;;;8.60;99.90;;;;;;5037642;28;36493;-76
2020/12/01 00:22:35;;;;;;;18.33;2.67;;;8.50;99.90;;;;;;5009326;28;37262;-75
2020/12/01 00:25:02;;;;;;;16.33;2.40;;;8.40;99.90;;;;;;5010043;28;38842;-75
2020/12/01 00:27:28;;;;;;;19.30;2.33;;;8.40;99.90;;;;;;5001053;28;48295;-75
2020/12/01 00:29:54;;;;;;;14.77;2.07;;;8.40;99.90;;;;;;5005584;28;38546;-75
2020/12/01 00:32:21;;;;;;;15.33;2.57;;;8.40;99.90;;;;;;5024792;28;37745;-75
2020/12/01 00:34:47;;;;;;;20.10;3.87;;;8.40;99.90;;;;;;5008668;28;38762;-75
2020/12/01 00:37:13;;;;;;;20.07;2.80;;;8.50;99.90;;;;;;5014069;28;37914;-74
2020/12/01 00:39:39;;;;;;;22.70;3.00;;;8.50;99.90;;;;;;5003620;28;37453;-74
2020/12/01 00:42:05;;;;;;;17.17;2.70;;;8.60;99.90;;;;;;5003693;28;37181;-74
2020/12/01 00:44:31;;;;;;;27.70;3.93;;;8.60;99.90;;;;;;5036491;28;38778;-74
2020/12/01 00:46:57;;;;;;;21.97;3.73;;;8.60;99.90;;;;;;5036577;28;36962;-74
2020/12/01 00:49:23;;;;;;;22.50;3.47;;;8.70;99.90;;;;;;5003960;28;37402;-75
2020/12/01 00:51:49;;;;;;;34.43;3.73;;;8.70;99.90;;;;;;5009332;28;37130;-75
2020/12/01 00:54:16;;;;;;;30.40;3.93;;;8.80;99.90;;;;;;5016728;28;38956;-75
2020/12/01 00:56:43;;;;;;;22.53;3.90;;;8.90;99.90;;;;;;5015432;28;38561;-76
2020/12/01 00:59:10;;;;;;;17.80;2.70;;;9.00;99.90;;;;;;5020137;28;36546;-75
2020/12/01 01:01:36;;;;;;;18.87;3.10;;;8.90;99.90;;;;;;5024347;28;36327;-75
2020/12/01 01:04:02;;;;;;;20.83;2.43;;;9.00;99.90;;;;;;5037071;28;38709;-75
2020/12/01 01:06:28;;;;;;;17.00;3.43;;;9.00;99.90;;;;;;5012968;28;39042;-75
2020/12/01 01:08:54;;;;;;;18.17;2.77;;;8.90;99.90;;;;;;5022546;28;38341;-75
2020/12/01 01:11:29;;;;;;;23.70;2.90;;;8.80;99.90;;;;;;5024087;28;37524;-75
2020/12/01 01:13:57;;;;;;;26.23;3.73;;;8.80;99.90;;;;;;5023201;28;38997;-75
2020/12/01 01:16:24;;;;;;;18.60;3.07;;;8.80;99.90;;;;;;5022590;28;39116;-75
2020/12/01 01:18:51;;;;;;;20.57;3.33;;;8.80;99.90;;;;;;5021062;28;37388;-75
2020/12/01 01:21:17;;;;;;;23.30;3.07;;;8.80;99.90;;;;;;5021121;28;38127;-75
2020/12/01 01:23:43;;;;;;;25.90;4.07;;;8.70;99.90;;;;;;5040072;28;38817;-75
2020/12/01 01:26:10;;;;;;;24.70;3.50;;;8.70;99.90;;;;;;5030701;28;37322;-75
2020/12/01 01:28:36;;;;;;;23.23;3.20;;;8.80;99.90;;;;;;5024471;28;36483;-75
2020/12/01 01:31:02;;;;;;;26.73;3.67;;;8.80;99.90;;;;;;5018794;28;35177;-75
2020/12/01 01:33:28;;;;;;;19.43;3.37;;;8.90;99.90;;;;;;5023144;28;38932;-75
2020/12/01 01:35:54;;;;;;;20.47;2.50;;;8.90;99.90;;;;;;5037579;28;36883;-75
2020/12/01 01:38:20;;;;;;;20.03;2.70;;;8.90;99.90;;;;;;5028559;28;37834;-75
2020/12/01 01:40:47;;;;;;;12.17;2.17;;;8.70;99.90;;;;;;5038457;28;36957;-75
2020/12/01 01:43:13;;;;;;;18.93;2.47;;;8.60;99.90;;;;;;5017964;28;39882;-75
2020/12/01 01:45:41;;;;;;;13.60;1.90;;;8.70;99.90;;;;;;5047047;28;38284;-75
2020/12/01 01:48:18;;;;;;;19.03;2.33;;;8.70;99.90;;;;;;5002864;28;36692;-75
2020/12/01 01:50:59;;;;;;;18.00;2.00;;;8.60;99.90;;;;;;5005911;28;36733;-75
2020/12/01 01:53:25;;;;;;;9.10;1.73;;;8.50;99.90;;;;;;5004492;28;39894;-75
2020/12/01 01:56:00;;;;;;;18.83;3.23;;;8.40;99.90;;;;;;5034185;28;37293;-75
2020/12/01 01:58:32;;;;;;;19.67;1.93;;;8.40;99.90;;;;;;5019371;28;39081;-75
2020/12/01 02:01:09;;;;;;;14.73;2.50;;;8.40;99.90;;;;;;5010627;28;36370;-75
2020/12/01 02:03:40;;;;;;;22.60;2.60;;;8.50;99.90;;;;;;5000854;28;47268;-75
2020/12/01 02:06:19;;;;;;;13.00;2.43;;;8.70;99.90;;;;;;5001134;28;37555;-75
2020/12/01 02:09:01;;;;;;;13.77;1.90;;;8.70;99.90;;;;;;5002584;28;38383;-75
2020/12/01 02:11:31;;;;;;;9.10;1.40;;;8.70;99.90;;;;;;5003962;28;36940;-75
2020/12/01 02:14:06;;;;;;;9.53;2.60;;;8.60;99.90;;;;;;5020918;28;39272;-75
2020/12/01 02:16:38;;;;;;;13.50;1.50;;;8.50;99.90;;;;;;5006529;28;48304;-75
2020/12/01 02:19:08;;;;;;;13.30;1.98;;;8.40;99.90;;;;;;5005367;28;37363;-75
2020/12/01 02:21:38;;;;;;;11.97;1.90;;;8.40;99.90;;;;;;5004117;28;37628;-75
2020/12/01 02:24:07;;;;;;;14.80;1.87;;;8.40;99.90;;;;;;5008029;28;39268;-75
2020/12/01 02:26:34;;;;;;;12.30;2.87;;;8.30;99.90;;;;;;5010204;28;39527;-75
2020/12/01 02:29:04;;;;;;;15.87;1.67;;;8.30;99.90;;;;;;5008863;28;37870;-75
2020/12/01 02:31:30;;;;;;;12.90;1.97;;;8.30;99.90;;;;;;5019342;28;47430;-75
2020/12/01 02:33:56;;;;;;;26.20;2.97;;;8.30;99.90;;;;;;5019801;28;38801;-75
2020/12/01 02:36:22;;;;;;;17.27;2.27;;;8.40;99.90;;;;;;5019999;28;37671;-75
2020/12/01 02:38:48;;;;;;;24.00;3.53;;;8.50;99.90;;;;;;5023925;28;38421;-75
2020/12/01 02:41:15;;;;;;;11.30;2.23;;;8.60;99.90;;;;;;5017826;28;37266;-75
2020/12/01 02:43:41;;;;;;;25.50;2.90;;;8.60;99.90;;;;;;5030487;28;38939;-75
2020/12/01 02:46:07;;;;;;;20.00;2.40;;;8.60;99.90;;;;;;5023221;28;38922;-75
2020/12/01 02:48:33;;;;;;;21.90;3.10;;;8.60;99.90;;;;;;5006552;28;38432;-75
2020/12/01 02:50:59;;;;;;;21.07;3.07;;;8.60;99.90;;;;;;5011281;28;38116;-75
2020/12/01 02:53:25;;;;;;;29.63;3.60;;;8.50;99.90;;;;;;5006287;28;39512;-75
2020/12/01 02:55:51;;;;;;;18.40;2.73;;;8.50;99.90;;;;;;5020705;28;38245;-75
2020/12/01 02:58:17;;;;;;;15.53;3.23;;;8.40;99.90;;;;;;5008912;28;37408;-75
2020/12/01 03:00:43;;;;;;;20.90;2.67;;;8.40;99.90;;;;;;5004885;28;36072;-75
2020/12/01 03:03:10;;;;;;;20.53;4.00;;;8.40;99.90;;;;;;4999812;28;39042;-75
2020/12/01 03:05:36;;;;;;;26.67;3.10;;;8.50;99.90;;;;;;5001387;28;38160;-75
2020/12/01 03:08:03;;;;;;;22.60;3.60;;;8.50;99.90;;;;;;4998698;28;38222;-75
2020/12/01 03:10:29;;;;;;;20.37;2.50;;;8.50;99.90;;;;;;4996588;28;37971;-75
2020/12/01 03:12:55;;;;;;;17.27;2.70;;;8.60;99.90;;;;;;5008989;28;37379;-75
2020/12/01 03:15:21;;;;;;;22.33;2.63;;;8.70;99.90;;;;;;4999015;28;37230;-75
2020/12/01 03:17:47;;;;;;;20.00;3.03;;;8.70;99.90;;;;;;5017713;28;36873;-75
2020/12/01 03:20:13;;;;;;;20.80;2.80;;;8.60;99.90;;;;;;4999462;28;38242;-75
2020/12/01 03:22:39;;;;;;;21.97;3.03;;;8.60;99.90;;;;;;5019216;28;37741;-76
2020/12/01 03:25:05;;;;;;;17.47;2.33;;;8.70;99.90;;;;;;5011755;28;37478;-75
2020/12/01 03:27:32;;;;;;;15.97;2.43;;;8.70;99.90;;;;;;5018577;28;38070;-75
2020/12/01 03:29:58;;;;;;;17.93;2.27;;;8.60;99.90;;;;;;5016495;28;36564;-75
2020/12/01 03:32:24;;;;;;;16.40;2.93;;;8.60;99.90;;;;;;5015022;28;38066;-75
2020/12/01 03:34:51;;;;;;;18.47;2.93;;;8.60;99.90;;;;;;4998131;28;38563;-75
2020/12/01 03:37:18;;;;;;;22.03;2.80;;;8.60;99.90;;;;;;4998728;28;36675;-75
2020/12/01 03:39:44;;;;;;;20.17;2.60;;;8.60;99.90;;;;;;5012798;28;36360;-75
2020/12/01 03:42:10;;;;;;;15.53;2.20;;;8.70;99.90;;;;;;5005346;28;37941;-75
2020/12/01 03:44:36;;;;;;;14.57;2.23;;;8.60;99.90;;;;;;5005607;28;37092;-75
2020/12/01 03:47:02;;;;;;;15.93;2.37;;;8.70;99.90;;;;;;5019858;28;36673;-75
2020/12/01 03:49:28;;;;;;;22.10;2.90;;;8.70;99.90;;;;;;5007258;28;37080;-75
2020/12/01 03:51:55;;;;;;;15.10;2.17;;;8.70;99.90;;;;;;5006220;28;38816;-75
2020/12/01 03:54:21;;;;;;;13.73;2.53;;;8.70;99.90;;;;;;5004500;28;39321;-76
2020/12/01 03:56:47;;;;;;;25.50;3.23;;;8.70;99.90;;;;;;5012517;28;36761;-76
2020/12/01 03:59:13;;;;;;;23.77;2.80;;;8.70;99.90;;;;;;5014980;28;36203;-75
2020/12/01 04:01:39;;;;;;;21.63;2.97;;;8.70;99.90;;;;;;5003341;28;39562;-75
2020/12/01 04:04:05;;;;;;;16.23;3.23;;;8.70;99.90;;;;;;5006005;28;39015;-75
2020/12/01 04:06:31;;;;;;;21.17;3.40;;;8.80;99.90;;;;;;5007418;28;37678;-75
2020/12/01 04:08:57;;;;;;;23.17;2.87;;;8.70;99.90;;;;;;4996724;28;37173;-75
2020/12/01 04:11:24;;;;;;;15.10;2.93;;;8.70;99.90;;;;;;5009659;28;40102;-75
2020/12/01 04:13:52;;;;;;;20.30;2.43;;;8.80;99.90;;;;;;5008317;28;38320;-74
2020/12/01 04:16:18;;;;;;;15.73;2.00;;;8.80;99.90;;;;;;5000657;28;37987;-74
2020/12/01 04:18:44;;;;;;;18.40;1.73;;;8.80;99.90;;;;;;5005985;28;37521;-75
2020/12/01 04:21:11;;;;;;;16.77;2.77;;;8.80;99.90;;;;;;5012351;28;37641;-75
2020/12/01 04:23:37;;;;;;;23.87;2.27;;;8.80;99.90;;;;;;5006578;28;38312;-74
2020/12/01 04:26:03;;;;;;;19.33;2.27;;;8.90;99.90;;;;;;5020527;28;37382;-75
2020/12/01 04:28:29;;;;;;;18.90;2.33;;;8.90;99.90;;;;;;5023124;28;35921;-75
2020/12/01 04:30:55;;;;;;;18.87;3.10;;;8.90;99.90;;;;;;5015498;28;37675;-75
2020/12/01 04:33:21;;;;;;;19.80;2.80;;;8.90;99.90;;;;;;5024521;28;38109;-75
2020/12/01 04:35:47;;;;;;;18.57;2.23;;;8.90;99.90;;;;;;5024315;28;37744;-75
2020/12/01 04:38:13;;;;;;;22.77;3.30;;;8.90;99.90;;;;;;5041885;28;36194;-75
2020/12/01 04:40:40;;;;;;;19.03;2.30;;;8.90;99.90;;;;;;5017607;28;39474;-75
2020/12/01 04:43:15;;;;;;;18.37;2.80;;;8.80;99.90;;;;;;5023491;28;37197;-75
2020/12/01 04:45:44;;;;;;;15.73;2.43;;;8.90;99.90;;;;;;5031951;28;36847;-75
2020/12/01 04:48:33;;;;;;;22.70;4.03;;;8.90;99.90;;;;;;5033857;28;36636;-75
2020/12/01 04:51:08;;;;;;;22.70;3.20;;;8.90;99.90;;;;;;5023973;28;39198;-75
2020/12/01 04:54:13;;;;;;;26.40;3.57;;;8.90;99.90;;;;;;5031481;28;47369;-75
2020/12/01 04:56:38;;;;;;;32.97;3.67;;;8.90;99.90;;;;;;4993786;28;47074;-76
2020/12/01 04:59:16;;;;;;;28.00;5.17;;;8.90;99.90;;;;;;5001202;28;37285;-75
2020/12/01 05:01:42;;;;;;;32.27;4.30;;;8.90;99.90;;;;;;5009691;28;38861;-75
2020/12/01 05:04:15;;;;;;;41.10;4.63;;;8.90;99.90;;;;;;5016553;28;37140;-75
2020/12/01 05:07:10;;;;;;;27.40;4.05;;;8.90;99.90;;;;;;5015008;28;35752;-75
2020/12/01 05:09:45;;;;;;;32.30;5.23;;;8.90;99.90;;;;;;5030425;28;47635;-75
2020/12/01 05:12:34;;;;;;;32.23;4.87;;;8.90;99.90;;;;;;5013908;28;38432;-75
2020/12/01 05:15:20;;;;;;;39.50;5.60;;;8.90;99.90;;;;;;5027693;28;39250;-75
2020/12/01 05:18:11;;;;;;;29.33;4.00;;;8.90;99.90;;;;;;5013544;28;48894;-75
2020/12/01 05:20:44;;;;;;;34.47;4.27;;;8.90;99.90;;;;;;5023696;28;49033;-76
2020/12/01 05:23:13;;;;;;;28.70;3.77;;;8.80;99.90;;;;;;5022262;28;38897;-76
2020/12/01 05:25:39;;;;;;;30.30;4.80;;;8.90;99.90;;;;;;5038510;28;39950;-75
2020/12/01 05:28:12;;;;;;;32.93;4.27;;;8.90;99.90;;;;;;5026334;28;37628;-75
2020/12/01 05:30:40;;;;;;;34.93;4.40;;;8.90;99.90;;;;;;5022409;28;36511;-75
2020/12/01 05:33:17;;;;;;;37.67;5.57;;;8.90;99.90;;;;;;5040538;28;39183;-75
2020/12/01 05:35:55;;;;;;;33.33;5.20;;;8.90;99.90;;;;;;5031789;28;38156;-75
2020/12/01 05:38:21;;;;;;;23.20;3.80;;;8.90;99.90;;;;;;5040646;28;37719;-75
2020/12/01 05:41:00;;;;;;;22.13;4.17;;;9.00;99.90;;;;;;5023887;28;37725;-75
2020/12/01 05:43:37;;;;;;;20.27;3.30;;;9.10;99.90;;;;;;5039135;28;38348;-75
2020/12/01 05:46:38;;;;;;;20.10;3.33;;;9.10;99.90;;;;;;5061081;28;37468;-75
2020/12/01 05:49:24;;;;;;;27.80;4.50;;;9.10;99.90;;;;;;5006370;28;37788;-75
2020/12/01 05:52:00;;;;;;;30.40;4.03;;;9.10;99.90;;;;;;5019195;28;36920;-76
2020/12/01 05:54:36;;;;;;;26.80;3.87;;;9.10;99.90;;;;;;5024465;28;47087;-75
2020/12/01 05:57:14;;;;;;;33.03;3.80;;;9.10;99.90;;;;;;5023669;28;37765;-75
2020/12/01 05:59:53;;;;;;;35.40;4.50;;;9.20;99.90;;;;;;5021861;28;36926;-74
2020/12/01 06:02:25;;;;;;;28.30;4.90;;;9.10;99.90;;;;;;5021985;28;36254;-75
2020/12/01 06:04:53;;;;;;;27.27;4.50;;;9.10;99.90;;;;;;5053878;28;37862;-74
2020/12/01 06:07:25;;;;;;;29.97;4.00;;;9.20;99.90;;;;;;5021003;28;38213;-75
2020/12/01 06:10:19;;;;;;;26.17;4.30;;;9.10;99.90;;;;;;5045968;28;36951;-74
2020/12/01 06:13:03;;;;;;;27.50;4.57;;;9.10;99.90;;;;;;5010934;28;49863;-75
2020/12/01 06:15:31;;;;;;;34.97;4.53;;;9.10;99.90;;;;;;5004840;28;47197;-75
2020/12/01 06:18:25;;;;;;;28.63;4.43;;;9.10;99.90;;;;;;5005869;28;39443;-75
2020/12/01 06:21:01;;;;;;;41.90;5.40;;;9.10;99.90;;;;;;5018101;28;47373;-75
2020/12/01 06:23:48;;;;;;;31.23;5.07;;;9.00;99.90;;;;;;5003999;28;45980;-75
2020/12/01 06:26:40;;;;;;;31.13;4.60;;;9.00;99.90;;;;;;5004754;28;37332;-75
2020/12/01 06:29:27;;;;;;;43.20;5.32;;;8.90;99.90;;;;;;5021953;28;38125;-75
2020/12/01 06:32:37;;;;;;;32.37;5.47;;;8.90;99.90;;;;;;5029130;28;37571;-76
2020/12/01 06:35:30;;;;;;;39.83;4.97;;;8.90;99.90;;;;;;5019526;28;49828;-76
2020/12/01 06:38:15;;;;;;;38.88;6.05;;;8.90;99.90;;;;;;5026667;28;38017;-76
2020/12/01 06:40:53;;;;;;;37.10;5.40;;;9.00;99.90;;;;;;5009867;28;49152;-78
2020/12/01 06:43:38;;;;;;;27.80;4.47;;;9.00;99.90;;;;;;5028171;28;36754;-77
2020/12/01 06:46:32;;;;;;;38.57;5.57;;;9.00;99.90;;;;;;5032786;28;36429;-77
2020/12/01 06:49:00;;;;;;;27.50;4.07;;;9.00;99.90;;;;;;5022572;28;37473;-76
2020/12/01 06:51:26;;;;;;;33.97;4.07;;;8.90;99.90;;;;;;4998573;28;39155;-77
2020/12/01 06:53:52;;;;;;;36.27;4.97;;;9.00;99.90;;;;;;5011814;28;37698;-76
2020/12/01 06:56:19;;;;;;;38.57;5.07;;;9.00;99.90;;;;;;5032081;28;36114;-77
2020/12/01 06:58:47;;;;;;;26.43;3.63;;;9.10;99.90;;;;;;5025803;28;38307;-77
2020/12/01 07:01:32;;;;;;;30.30;4.63;;;9.10;99.90;;;;;;5007303;28;37316;-75
2020/12/01 07:04:04;;;;;;;19.83;4.17;;;9.10;99.90;;;;;;5001602;28;39097;-76
2020/12/01 07:06:30;;;;;;;35.07;4.90;;;9.20;99.90;;;;;;5009773;28;48128;-77
2020/12/01 07:09:13;;;;;;;38.73;6.37;;;9.20;99.90;;;;;;5010515;28;39285;-76
2020/12/01 07:12:24;;;;;;;33.38;5.25;;;9.20;99.90;;;;;;5028888;28;47249;-77
2020/12/01 07:14:59;;;;;;;34.27;6.57;;;9.20;99.90;;;;;;5029917;28;47597;-76
2020/12/01 07:17:31;;;;;;;42.63;5.33;;;9.20;99.90;;;;;;5037139;28;37218;-76
2020/12/01 07:20:09;;;;;;;49.00;6.10;;;9.20;99.90;;;;;;5037589;28;38671;-76
2020/12/01 07:23:00;;;;;;;36.70;4.90;;;9.20;99.90;;;;;;5004364;28;49510;-77
2020/12/01 07:25:42;;;;;;;37.87;5.57;;;9.10;99.90;;;;;;5025204;28;37923;-77
2020/12/01 07:28:43;;;;;;;34.63;6.17;;;9.00;99.90;;;;;;5011061;28;36970;-77
2020/12/01 07:31:26;;;;;;;38.53;6.30;;;8.90;99.90;;;;;;5015858;28;37332;-76
2020/12/01 07:33:55;;;;;;;;;;;8.90;99.90;;;;;;5003855;28;39297;-76
2020/12/01 07:36:37;;;;;;;49.47;6.07;;;8.90;99.90;;;;;;5006281;28;37469;-76
2020/12/01 07:39:19;;;;;;;38.22;5.32;;;8.90;99.90;;;;;;5025649;28;36898;-77
2020/12/01 07:42:04;;;;;;;39.75;4.40;;;8.90;99.90;;;;;;5005159;28;36038;-77
2020/12/01 07:44:32;;;;;;;34.87;4.70;;;8.80;99.90;;;;;;5021708;28;47138;-77
2020/12/01 07:47:16;;;;;;;26.60;4.20;;;8.70;99.90;;;;;;5005090;28;36857;-76
2020/12/01 07:49:42;;;;;;;21.80;3.13;;;8.70;99.90;;;;;;5018646;28;47108;-77
2020/12/01 07:52:14;;;;;;;20.70;3.27;;;8.60;99.90;;;;;;5009635;28;38896;-76
2020/12/01 07:54:46;;;;;;;20.38;2.83;;;8.50;99.90;;;;;;5002090;28;38387;-78
2020/12/01 07:57:17;;;;;;;24.98;3.45;;;8.50;99.90;;;;;;4999917;28;38056;-77
2020/12/01 08:07:16;;;;;;;27.63;3.38;;;8.60;99.90;;;;;;4925611;28;48292;-77
2020/12/01 08:09:44;;;;;;;26.17;4.93;;;8.60;99.90;;;;;;4978007;28;38827;-77
2020/12/01 08:12:15;;;;;;;31.57;3.90;;;8.70;99.90;;;;;;5013231;28;37792;-78
2020/12/01 08:15:12;;;;;;;26.73;3.93;;;8.70;99.90;;;;;;5024991;28;39310;-78
2020/12/01 08:17:38;;;;;;;24.80;3.80;;;8.80;99.90;;;;;;5025882;28;48774;-77
2020/12/01 08:20:06;;;;;;;37.03;6.07;;;8.90;99.90;;;;;;5023165;28;37672;-77
2020/12/01 08:22:38;;;;;;;32.90;5.43;;;8.90;99.90;;;;;;5026487;28;36841;-77
2020/12/01 08:25:11;;;;;;;31.70;5.43;;;9.00;99.90;;;;;;5021421;28;39080;-77
2020/12/01 08:27:48;;;;;;;35.20;5.83;;;9.00;99.90;;;;;;5020795;28;38486;-75
2020/12/01 08:30:26;;;;;;;29.47;4.03;;;9.00;99.90;;;;;;5017176;28;38677;-76
2020/12/01 08:33:02;;;;;;;31.90;4.80;;;9.00;99.90;;;;;;5023832;28;36856;-76
2020/12/01 08:35:42;;;;;;;22.87;4.43;;;9.10;99.90;;;;;;5019475;28;48243;-76
2020/12/01 08:38:11;;;;;;;25.93;4.20;;;9.10;99.90;;;;;;5027999;28;39277;-75
2020/12/01 08:41:00;;;;;;;20.60;4.30;;;9.20;99.90;;;;;;5024538;28;37526;-75
2020/12/01 08:43:46;;;;;;;22.60;4.40;;;9.30;99.90;;;;;;5039935;28;47020;-73
2020/12/01 08:46:21;;;;;;;37.50;5.07;;;9.30;99.90;;;;;;5028281;28;37677;-76
2020/12/01 08:48:53;;;;;;;32.47;3.97;;;9.40;99.90;;;;;;5015336;28;38875;-77
2020/12/01 08:51:24;;;;;;;26.60;4.60;;;9.40;99.90;;;;;;5034098;28;38289;-76
2020/12/01 08:53:50;;;;;;;24.03;3.40;;;9.40;99.90;;;;;;5024482;28;37280;-76
2020/12/01 08:56:38;;;;;;;33.73;4.00;;;9.50;99.90;;;;;;5027203;28;40214;-76
2020/12/01 08:59:07;;;;;;;22.60;4.57;;;9.50;99.90;;;;;;5041004;28;37275;-76
2020/12/01 09:01:42;;;;;;;29.73;4.57;;;9.60;99.90;;;;;;5013842;28;48659;-76
2020/12/01 09:04:24;;;;;;;37.43;4.53;;;9.60;99.90;;;;;;5021022;28;38189;-73
2020/12/01 09:06:52;;;;;;;26.48;4.13;;;9.60;99.90;;;;;;5018804;28;39905;-74
2020/12/01 09:09:26;;;;;;;26.77;5.10;;;9.60;99.90;;;;;;5025544;28;37462;-73
2020/12/01 09:12:28;;;;;;;31.90;4.43;;;9.70;99.90;;;;;;5028691;28;37346;-76
2020/12/01 09:20:49;;;;;;;22.27;4.10;;;9.60;99.90;;;;;;5004633;28;39856;-75
2020/12/01 09:23:20;;;;;;;28.80;4.47;;;9.60;99.90;;;;;;5005435;28;37573;-75
2020/12/01 09:25:48;;;;;;;34.47;4.10;;;9.60;99.90;;;;;;5035193;28;35529;-75
2020/12/01 09:28:29;;;;;;;19.87;3.27;;;9.70;99.90;;;;;;5001495;28;38575;-74
2020/12/01 09:31:05;;;;;;;21.47;3.97;;;9.70;99.90;;;;;;5006385;28;37551;-73
2020/12/01 09:33:32;;;;;;;23.00;4.03;;;9.80;99.90;;;;;;5025167;28;48310;-74
2020/12/01 09:35:58;;;;;;;24.87;3.60;;;9.90;99.90;;;;;;5019937;28;37002;-73
2020/12/01 09:38:24;;;;;;;28.27;3.63;;;10.00;99.90;;;;;;5024982;28;39569;-73
2020/12/01 09:40:52;;;;;;;22.77;4.77;;;10.00;99.90;;;;;;5027612;28;38535;-74
2020/12/01 09:43:34;;;;;;;22.40;4.20;;;10.00;99.90;;;;;;5023345;28;37780;-74
2020/12/01 09:46:06;;;;;;;23.50;4.88;;;10.00;99.90;;;;;;5012443;28;37428;-74
2020/12/01 09:48:41;;;;;;;26.52;3.90;;;10.00;99.90;;;;;;5038478;28;46989;-74
2020/12/01 09:51:08;;;;;;;27.97;4.03;;;10.00;99.90;;;;;;5034150;28;37960;-73
2020/12/01 09:53:49;;;;;;;24.30;3.30;;;10.10;99.90;;;;;;5048657;28;36518;-74
2020/12/01 09:57:35;;;;;;;29.10;4.27;;;10.10;99.90;;;;;;5023433;28;36507;-74
2020/12/01 09:59:45;;;;;;;25.98;4.30;;;10.10;99.90;;;;;;5027823;28;40273;-74
2020/12/01 10:19:03;;;;;;;22.03;3.60;;;10.20;99.90;;;;;;4986847;28;49426;-74
2020/12/01 10:34:47;;;;;;;24.67;3.90;;;10.20;99.90;;;;;;5007526;28;49490;-74
2020/12/01 10:37:14;;;;;;;24.17;3.90;;;10.20;99.90;;;;;;5024389;28;37995;-74
2020/12/01 10:39:40;;;;;;;24.10;3.57;;;10.30;99.90;;;;;;5011878;28;35884;-74
2020/12/01 10:42:08;;;;;;;28.83;4.67;;;10.30;99.90;;;;;;5026121;28;38858;-74
2020/12/01 10:44:35;;;;;;;28.27;4.17;;;10.40;99.90;;;;;;5013643;28;39075;-74
2020/12/01 10:47:01;;;;;;;28.27;5.03;;;10.40;99.90;;;;;;5032887;28;38069;-73
2020/12/01 10:49:27;;;;;;;29.50;4.47;;;10.50;99.90;;;;;;5016713;28;47012;-74
2020/12/01 10:51:53;;;;;;;27.93;3.90;;;10.70;99.90;;;;;;5022881;28;37542;-74
2020/12/01 10:54:19;;;;;;;29.47;3.90;;;10.70;99.90;;;;;;5028140;28;38723;-74
2020/12/01 10:56:47;;;;;;;27.80;3.60;;;10.60;99.90;;;;;;5025187;28;40618;-73
2020/12/01 10:59:14;;;;;;;26.93;3.97;;;10.40;99.90;;;;;;5036277;28;36009;-74
2020/12/01 11:01:40;;;;;;;20.37;3.90;;;10.40;99.90;;;;;;5026831;28;39099;-74
2020/12/01 11:04:06;;;;;;;22.90;4.07;;;10.60;99.90;;;;;;5027759;28;39275;-74
2020/12/01 11:06:32;;;;;;;19.37;2.93;;;10.80;99.90;;;;;;5025778;28;37867;-74
2020/12/01 11:08:58;;;;;;;26.03;4.13;;;10.80;99.90;;;;;;5021147;28;36005;-73
2020/12/01 11:11:24;;;;;;;23.70;3.63;;;10.80;99.90;;;;;;5029377;28;39349;-74
2020/12/01 11:13:51;;;;;;;13.37;2.90;;;10.80;99.90;;;;;;5024927;28;37591;-74
2020/12/01 11:16:17;;;;;;;32.90;5.17;;;10.70;99.90;;;;;;5020931;28;38480;-74
2020/12/01 11:18:43;;;;;;;21.17;4.03;;;10.70;99.90;;;;;;5023986;28;38121;-74
2020/12/01 11:21:09;;;;;;;19.13;3.10;;;10.70;99.90;;;;;;5059717;28;38220;-74
2020/12/01 11:23:35;;;;;;;16.53;3.23;;;10.70;99.90;;;;;;5043783;28;38664;-74
2020/12/01 11:26:01;;;;;;;21.07;4.13;;;10.60;99.90;;;;;;5026245;28;37516;-74
2020/12/01 11:28:27;;;;;;;20.93;3.87;;;10.40;99.90;;;;;;5042290;28;36174;-74
2020/12/01 11:30:53;;;;;;;25.67;4.10;;;10.40;99.90;;;;;;5024324;28;38787;-74
2020/12/01 11:33:19;;;;;;;31.43;4.40;;;10.50;99.90;;;;;;5035010;28;38676;-74
2020/12/01 11:35:45;;;;;;;23.63;4.73;;;10.40;99.90;;;;;;5040230;28;36708;-74
2020/12/01 11:38:11;;;;;;;36.40;4.67;;;10.40;99.90;;;;;;5018801;28;35994;-74
2020/12/01 11:40:37;;;;;;;25.83;4.40;;;10.40;99.90;;;;;;5032568;28;37846;-74
2020/12/01 11:43:04;;;;;;;31.63;4.30;;;10.40;99.90;;;;;;5037376;28;37437;-74
2020/12/01 11:45:30;;;;;;;26.77;4.23;;;10.50;99.90;;;;;;5023806;28;37346;-75
2020/12/01 11:47:56;;;;;;;22.80;3.90;;;10.60;99.90;;;;;;5020729;28;36756;-74
2020/12/01 11:50:22;;;;;;;32.07;4.60;;;10.80;99.90;;;;;;5032139;28;37962;-74
2020/12/01 11:52:48;;;;;;;21.17;3.87;;;11.00;99.90;;;;;;5020369;28;38175;-74
2020/12/01 11:55:14;;;;;;;30.80;4.03;;;11.00;99.90;;;;;;5038632;28;38123;-75
2020/12/01 11:57:40;;;;;;;22.27;4.00;;;10.90;99.90;;;;;;5026791;28;37026;-75
2020/12/01 12:00:08;;;;;;;26.80;4.93;;;10.80;99.90;;;;;;5016476;28;39011;-76
2020/12/01 12:02:34;;;;;;;24.07;4.80;;;10.60;99.90;;;;;;5021121;28;37855;-75
2020/12/01 12:05:00;;;;;;;20.90;3.80;;;10.40;99.90;;;;;;5026354;28;38091;-76
2020/12/01 12:07:26;;;;;;;27.40;4.03;;;10.40;99.90;;;;;;5059384;28;36442;-75
2020/12/01 12:09:52;;;;;;;23.43;3.93;;;10.50;99.90;;;;;;5021192;28;38722;-73
2020/12/01 12:12:18;;;;;;;25.67;4.13;;;10.60;99.90;;;;;;5046434;28;36945;-73
2020/12/01 12:14:44;;;;;;;23.13;3.93;;;10.70;99.90;;;;;;5016829;28;37705;-73
2020/12/01 12:17:10;;;;;;;18.27;4.40;;;10.80;99.90;;;;;;5017158;28;36861;-73
2020/12/01 12:19:37;;;;;;;22.17;3.73;;;10.90;99.90;;;;;;5025788;28;39419;-73
2020/12/01 12:22:03;;;;;;;24.07;3.97;;;10.90;99.90;;;;;;5026016;28;39389;-73
2020/12/01 12:24:29;;;;;;;24.03;3.47;;;11.00;99.90;;;;;;5052417;28;36662;-74
2020/12/01 12:26:55;;;;;;;22.83;3.27;;;11.00;99.90;;;;;;5024259;28;35938;-74
2020/12/01 12:29:21;;;;;;;26.33;5.13;;;10.90;99.90;;;;;;5033688;28;37476;-74
2020/12/01 12:31:47;;;;;;;28.90;4.57;;;10.90;99.90;;;;;;5021032;28;37275;-75
2020/12/01 12:34:13;;;;;;;28.03;4.00;;;10.80;99.90;;;;;;5022912;28;36937;-74
2020/12/01 12:36:39;;;;;;;26.90;4.57;;;10.80;99.90;;;;;;5028732;28;36140;-75
2020/12/01 12:39:05;;;;;;;26.77;4.40;;;10.80;99.90;;;;;;5024929;28;38897;-74
2020/12/01 12:41:31;;;;;;;31.70;4.67;;;10.80;99.90;;;;;;5029388;28;38503;-75
2020/12/01 12:43:57;;;;;;;27.13;4.87;;;10.80;99.90;;;;;;5026514;28;38034;-75
2020/12/01 12:46:23;;;;;;;27.67;4.15;;;10.80;99.90;;;;;;5057231;28;36366;-75
2020/12/01 12:48:49;;;;;;;23.30;4.60;;;10.70;99.90;;;;;;5042173;28;38778;-75
2020/12/01 12:51:15;;;;;;;23.13;5.37;;;10.60;99.90;;;;;;5035829;28;37577;-75
2020/12/01 12:53:41;;;;;;;25.33;3.80;;;10.80;99.90;;;;;;5016561;28;37630;-75
2020/12/01 12:56:07;;;;;;;22.60;3.60;;;11.00;99.90;;;;;;5036353;28;37138;-75
2020/12/01 12:58:33;;;;;;;24.40;3.77;;;11.10;99.90;;;;;;5041418;28;38568;-74
2020/12/01 13:00:59;;;;;;;19.25;4.28;;;11.10;99.90;;;;;;5024198;28;37647;-74
2020/12/01 13:03:25;;;;;;;16.30;3.50;;;11.10;99.90;;;;;;5039704;28;37878;-75
2020/12/01 13:05:52;;;;;;;17.53;4.00;;;11.10;99.90;;;;;;5020511;28;38214;-75
2020/12/01 13:08:18;;;;;;;22.73;4.40;;;11.00;99.90;;;;;;5024520;28;37832;-75
2020/12/01 13:10:44;;;;;;;29.87;4.50;;;10.80;99.90;;;;;;5022175;28;38829;-74
2020/12/01 13:13:10;;;;;;;23.40;4.00;;;10.70;99.90;;;;;;5018621;28;37975;-74
2020/12/01 13:15:36;;;;;;;20.60;3.47;;;10.70;99.90;;;;;;5011378;28;37293;-74
2020/12/01 13:18:02;;;;;;;22.73;3.90;;;10.50;99.90;;;;;;5013254;28;38751;-75
2020/12/01 13:20:31;;;;;;;26.30;4.67;;;10.50;99.90;;;;;;5026516;28;37370;-75
2020/12/01 13:22:58;;;;;;;23.20;3.43;;;10.50;99.90;;;;;;5032373;28;36633;-75
2020/12/01 13:25:24;;;;;;;25.17;4.47;;;10.40;99.90;;;;;;5044718;28;36568;-74
2020/12/01 13:27:50;;;;;;;26.63;4.10;;;10.50;99.90;;;;;;5025627;28;37415;-74
2020/12/01 13:30:18;;;;;;;27.37;4.87;;;10.50;99.90;;;;;;5026032;28;38282;-74
2020/12/01 13:32:44;;;;;;;27.33;4.00;;;10.50;99.90;;;;;;5027223;28;36887;-74
2020/12/01 13:35:13;;;;;;;33.37;4.50;;;10.40;99.90;;;;;;5029632;28;37038;-74
2020/12/01 13:37:42;;;;;;;26.57;3.87;;;10.30;99.90;;;;;;5028583;28;38906;-73
2020/12/01 13:40:12;;;;;;;32.70;4.10;;;10.20;99.90;;;;;;5042894;28;37546;-74
2020/12/01 13:42:38;;;;;;;27.77;3.83;;;10.20;99.90;;;;;;5047619;28;37696;-74
2020/12/01 13:45:06;;;;;;;29.43;5.30;;;10.10;99.90;;;;;;5020335;28;36185;-74
2020/12/01 13:47:32;;;;;;;20.03;4.03;;;10.10;99.90;;;;;;5033407;28;40096;-74